Terminal Aerodrome Forecast
Issued by NWS Knoxville/Tri Cities, TN

Home | Current Version | Previous Version | Text Only | Print | Product List | Glossary On
Versions: 1 2 3 4 5 6 7 8 9 10 11 12 13 14 15 16 17
000
FTUS44 KMRX 271720
TAFTRI
TAF
KTRI 271720Z 2718/2818 12004KT P6SM SCT050
     FM280100 00000KT P6SM FEW070 SCT150
     FM280900 00000KT 3SM BR FEW003 SCT150
     FM281300 VRB03KT P6SM FEW045 SCT150=

USA.gov is the U.S. government's official web portal to all federal, state and local government web resources and services.